Time;durP1;ratioP1;P1;durP2;ratioP2;P2;SDS_P1;SDS_P2;PMS_P1;PMS_P2;Temp;Humidity;BMP_temperature;BMP_pressure;BME280_temperature;BME280_humidity;BME280_pressure;Samples;Min_cycle;Max_cycle;Signal;HPM_P1;HPM_P2
2023/06/23 00:02:24;;;;;;;5.73;4.20;;;21.40;99.80;;;21.98;83.10;97727.13;4994396;28;20453;-76
2023/06/23 00:04:51;;;;;;;7.80;4.03;;;21.40;99.40;;;22.02;82.31;97730.91;4991993;28;20896;-80
2023/06/23 00:07:19;;;;;;;5.40;3.50;;;21.50;98.80;;;21.62;78.24;97678.13;4996093;28;20503;-86
2023/06/23 00:09:46;;;;;;;3.20;2.87;;;21.50;95.10;;;21.83;76.38;97741.09;4994572;28;20448;-84
2023/06/23 00:12:13;;;;;;;2.90;2.53;;;21.50;93.30;;;21.62;75.48;97736.66;4999720;28;20525;-82
2023/06/23 00:14:42;;;;;;;2.73;1.70;;;21.40;92.40;;;21.59;74.80;97750.16;5005158;28;20463;-85
2023/06/23 00:17:10;;;;;;;2.70;2.07;;;21.30;92.00;;;21.59;74.23;97752.91;4997450;28;20487;-79
2023/06/23 00:19:38;;;;;;;2.10;1.70;;;21.30;91.90;;;21.17;73.74;97709.47;4993869;28;20464;-85
2023/06/23 00:22:05;;;;;;;2.47;1.33;;;21.20;91.50;;;21.43;73.38;97764.09;4974959;28;20457;-85
2023/06/23 00:24:32;;;;;;;1.83;1.70;;;21.10;91.30;;;20.98;73.09;97716.81;4998841;28;20448;-86
2023/06/23 00:27:03;;;;;;;2.20;2.00;;;21.00;91.20;;;21.54;73.62;97763.97;4973736;28;20484;-85
2023/06/23 00:29:30;;;;;;;1.87;1.20;;;21.00;91.80;;;21.46;73.54;97769.03;4992903;28;20460;-86
2023/06/23 00:31:57;;;;;;;1.67;1.40;;;21.10;91.60;;;21.41;73.00;97771.81;4992009;28;20477;-80
2023/06/23 00:34:26;;;;;;;1.83;1.47;;;21.00;91.30;;;21.40;73.28;97772.94;4989362;28;20487;-92
2023/06/23 00:36:55;;;;;;;1.30;1.20;;;21.00;91.50;;;21.31;72.98;97786.50;4987923;28;20493;-90
2023/06/23 00:39:23;;;;;;;2.37;1.67;;;21.00;91.30;;;21.00;73.80;97764.84;4974336;28;20460;-87
2023/06/23 00:41:52;;;;;;;1.63;1.40;;;20.90;91.60;;;20.75;74.30;97766.69;4989839;28;20448;-86
2023/06/23 00:44:19;;;;;;;1.60;1.50;;;20.70;91.40;;;20.38;76.15;97763.41;5012816;28;20480;-86
2023/06/23 00:46:47;;;;;;;1.47;1.37;;;20.50;91.60;;;20.54;76.00;97779.75;5007755;28;20495;-91
2023/06/23 00:49:15;;;;;;;1.97;1.60;;;20.50;92.00;;;20.51;75.33;97764.72;5003045;28;20474;-87
2023/06/23 00:51:47;;;;;;;2.43;1.50;;;20.40;91.90;;;20.28;76.70;97777.22;5001077;28;20470;-88
2023/06/23 00:54:17;;;;;;;2.20;1.40;;;20.30;92.40;;;20.38;75.59;97762.63;4978442;28;20449;-89
2023/06/23 00:56:44;;;;;;;1.53;1.43;;;20.30;91.90;;;20.10;74.39;97705.50;5009717;28;20487;-86
2023/06/23 00:59:11;;;;;;;1.53;1.30;;;20.30;91.50;;;20.49;74.12;97741.41;4968938;28;20451;-85
2023/06/23 01:01:40;;;;;;;1.83;1.20;;;20.30;91.40;;;20.57;74.63;97762.75;5005597;28;20445;-88
2023/06/23 01:04:09;;;;;;;1.20;1.03;;;20.30;91.80;;;20.36;73.97;97745.63;4990062;28;20464;-87
2023/06/23 01:06:48;;;;;;;1.43;1.33;;;20.30;91.30;;;20.45;73.92;97751.31;4994738;28;20463;-86
2023/06/23 01:09:22;;;;;;;1.57;1.20;;;20.30;91.20;;;20.57;73.58;97781.13;4997215;28;20466;-87
2023/06/23 01:12:05;;;;;;;1.20;1.13;;;20.20;91.20;;;20.33;73.52;97763.47;4999287;28;20535;-90
2023/06/23 01:14:41;;;;;;;1.70;1.10;;;20.20;91.10;;;20.34;73.73;97762.38;5015417;28;20479;-87
2023/06/23 01:17:19;;;;;;;1.27;1.10;;;20.20;91.30;;;20.30;73.98;97764.06;4992761;28;20823;-91
2023/06/23 01:20:09;;;;;;;1.40;1.30;;;20.20;91.20;;;20.43;73.88;97783.72;4984430;28;20464;-89
2023/06/23 01:22:51;;;;;;;1.10;1.00;;;20.20;91.30;;;20.35;73.43;97769.50;4972177;28;20459;-85
2023/06/23 01:25:29;;;;;;;1.40;1.30;;;20.20;91.00;;;20.38;73.45;97782.63;4986225;28;20466;-85
2023/06/23 01:28:22;;;;;;;1.57;1.17;;;20.20;91.10;;;20.36;73.76;97782.09;4973508;28;20461;-93
2023/06/23 01:30:54;;;;;;;1.13;1.07;;;20.10;90.90;;;20.26;73.95;97768.47;4971126;28;20482;-88
2023/06/23 01:33:37;;;;;;;1.30;1.20;;;20.10;91.00;;;20.21;73.70;97768.50;4973680;28;20529;-90
2023/06/23 01:38:59;;;;;;;1.40;1.30;;;20.10;90.90;;;20.30;73.05;97758.56;4987404;28;20446;-88
2023/06/23 01:41:33;;;;;;;1.40;1.30;;;20.10;90.90;;;20.05;73.02;97721.97;4985771;28;20467;-91
2023/06/23 01:44:13;;;;;;;1.50;1.40;;;20.10;91.00;;;19.94;73.71;97723.97;4962317;28;20883;-86
2023/06/23 01:46:46;;;;;;;1.73;1.40;;;20.00;91.00;;;20.19;73.75;97773.44;4968710;28;20817;-88
2023/06/23 01:49:18;;;;;;;1.73;1.40;;;20.00;91.10;;;20.16;73.21;97752.09;4982118;28;20458;-89
2023/06/23 01:51:52;;;;;;;1.50;1.40;;;20.00;91.00;;;20.26;73.03;97763.00;4986937;28;20479;-85
2023/06/23 01:54:21;;;;;;;1.03;1.00;;;20.00;90.80;;;19.88;73.59;97718.78;4965149;28;20471;-92
2023/06/23 01:56:51;;;;;;;1.20;0.90;;;20.10;91.00;;;20.28;72.90;97777.22;4989452;28;21248;-85
2023/06/23 01:59:20;;;;;;;1.57;1.47;;;20.10;90.70;;;20.29;73.63;97778.88;4981825;28;20443;-87
2023/06/23 02:01:50;;;;;;;1.77;1.40;;;20.00;90.80;;;20.31;72.88;97778.56;4975562;28;20754;-89
2023/06/23 02:04:20;;;;;;;1.53;1.33;;;20.00;90.70;;;20.21;72.91;97772.06;4989977;28;20460;-86
2023/06/23 02:06:49;;;;;;;1.23;1.10;;;20.00;90.70;;;20.16;73.83;97779.50;4970717;28;20464;-86
2023/06/23 02:09:26;;;;;;;1.57;1.20;;;20.00;91.10;;;20.09;73.91;97766.13;4972644;28;20971;-86
2023/06/23 02:11:55;;;;;;;1.27;1.17;;;19.90;91.20;;;20.10;73.65;97774.06;4986275;28;21030;-86
2023/06/23 02:14:26;;;;;;;1.30;1.10;;;19.90;90.90;;;20.12;73.56;97762.00;4983711;28;20927;-87
2023/06/23 02:16:58;;;;;;;1.60;1.50;;;19.90;90.90;;;20.15;73.39;97754.00;4971106;28;20949;-87
2023/06/23 02:19:31;;;;;;;1.67;1.53;;;19.90;90.80;;;20.16;72.92;97758.38;4984083;28;20560;-87
2023/06/23 02:22:03;;;;;;;1.43;1.33;;;20.00;90.70;;;20.20;73.99;97764.13;4965665;28;20588;-89
2023/06/23 02:24:31;;;;;;;1.40;1.30;;;20.00;90.80;;;20.22;72.97;97762.72;4972570;28;20832;-87
2023/06/23 02:27:01;;;;;;;1.60;1.50;;;20.10;90.60;;;20.19;73.03;97746.03;4988579;28;20457;-88
2023/06/23 02:29:29;;;;;;;1.83;1.60;;;20.10;90.70;;;20.08;72.51;97726.09;4969960;28;20466;-88
2023/06/23 02:31:59;;;;;;;1.60;1.33;;;20.10;90.60;;;20.44;72.43;97772.44;4968906;28;20483;-87
2023/06/23 02:34:27;;;;;;;1.50;1.40;;;20.10;90.60;;;20.41;72.60;97780.44;4987497;28;20491;-89
2023/06/23 02:37:00;;;;;;;1.93;1.20;;;20.20;90.60;;;20.35;72.93;97777.72;4982995;28;20498;-87
2023/06/23 02:39:32;;;;;;;1.63;1.47;;;20.10;90.60;;;20.29;72.72;97772.56;4992266;28;20488;-86
2023/06/23 02:42:01;;;;;;;1.70;1.60;;;20.10;90.60;;;19.89;72.50;97691.09;4989871;28;21012;-90
2023/06/23 02:44:39;;;;;;;2.03;1.77;;;20.10;90.60;;;20.41;72.40;97766.72;4995461;28;20454;-91
2023/06/23 02:47:16;;;;;;;1.67;1.50;;;20.20;90.60;;;19.79;72.94;97672.81;4997236;28;20479;-94
2023/06/23 02:49:46;;;;;;;1.93;1.63;;;20.20;90.60;;;19.87;72.31;97690.56;4997128;28;20924;-90
2023/06/23 02:52:17;;;;;;;1.70;1.60;;;20.20;90.50;;;20.27;73.05;97775.59;4991531;28;20517;-92
2023/06/23 02:54:50;;;;;;;2.10;1.90;;;20.20;90.40;;;20.13;72.76;97736.22;4995849;28;20456;-94
2023/06/23 02:57:21;;;;;;;2.90;1.50;;;20.20;90.50;;;20.27;73.29;97763.78;4996112;28;20467;-91
2023/06/23 02:59:53;;;;;;;1.63;1.53;;;20.20;90.50;;;19.50;73.11;97657.09;4989183;28;20478;-92
2023/06/23 03:02:24;;;;;;;1.43;1.33;;;20.20;90.60;;;20.21;73.40;97776.72;4987121;28;20463;-90
2023/06/23 03:04:52;;;;;;;1.70;1.60;;;20.20;90.60;;;20.30;73.02;97791.47;5015308;28;20452;-89
2023/06/23 03:07:20;;;;;;;1.60;1.50;;;20.20;90.50;;;20.24;73.38;97789.84;5013659;28;20474;-88
2023/06/23 03:09:47;;;;;;;1.80;1.70;;;20.20;90.40;;;20.21;74.03;97804.16;5011619;28;20458;-88
2023/06/23 03:12:16;;;;;;;2.17;1.80;;;20.20;90.70;;;20.13;73.55;97780.09;4997051;28;20480;-92
2023/06/23 03:14:44;;;;;;;1.90;1.80;;;20.30;90.60;;;20.18;73.74;97804.72;5004080;28;20549;-88
2023/06/23 03:17:21;;;;;;;1.60;1.50;;;20.20;90.60;;;20.19;74.02;97825.56;4992120;28;20468;-90
2023/06/23 03:19:57;;;;;;;1.60;1.50;;;20.20;90.60;;;20.05;73.75;97823.44;4961638;28;20460;-89
2023/06/23 03:22:30;;;;;;;2.13;1.93;;;20.20;90.50;;;19.39;73.98;97800.66;4975233;28;20489;-88
2023/06/23 03:25:03;;;;;;;3.37;2.50;;;19.80;90.10;;;19.53;73.22;97836.50;4997742;28;20470;-87
2023/06/23 03:27:34;;;;;;;3.90;2.93;;;19.70;90.00;;;19.21;73.19;97827.56;4984169;28;20531;-88
2023/06/23 03:30:08;;;;;;;2.97;2.60;;;19.50;89.70;;;19.02;73.04;97804.56;4977569;28;20472;-87
2023/06/23 03:32:47;;;;;;;2.53;2.33;;;19.40;89.50;;;19.13;73.57;97850.00;4973997;28;20475;-90
2023/06/23 03:35:23;;;;;;;3.07;2.80;;;19.30;89.90;;;19.06;73.62;97846.75;4977315;28;20480;-88
2023/06/23 03:37:53;;;;;;;3.10;2.80;;;19.20;89.80;;;19.01;72.92;97838.50;4972091;28;20454;-87
2023/06/23 03:40:24;;;;;;;2.80;2.47;;;19.20;89.30;;;19.04;72.15;97827.03;4973324;28;20461;-88
2023/06/23 03:42:57;;;;;;;3.47;2.30;;;19.20;89.40;;;18.85;72.29;97821.28;4956158;28;20447;-88
2023/06/23 03:45:27;;;;;;;2.90;2.70;;;19.10;88.80;;;18.95;72.16;97843.97;4951174;28;20496;-87
2023/06/23 03:48:02;;;;;;;3.57;2.83;;;19.10;88.70;;;18.94;71.42;97842.34;4953322;28;20460;-88
2023/06/23 03:50:35;;;;;;;3.40;3.10;;;19.10;88.40;;;18.72;71.21;97785.16;4972018;28;20541;-87
2023/06/23 03:53:05;;;;;;;4.33;2.60;;;19.10;88.30;;;19.11;71.40;97854.94;4990441;28;20522;-86
2023/06/23 03:55:33;;;;;;;3.03;2.73;;;19.00;88.30;;;19.16;70.71;97868.63;4992564;28;20468;-86
2023/06/23 03:58:06;;;;;;;6.10;3.30;;;19.10;88.20;;;19.16;70.71;97857.66;4992615;28;20463;-87
2023/06/23 04:00:37;;;;;;;3.50;3.03;;;19.10;87.90;;;19.24;70.25;97856.28;4999934;28;20452;-86
2023/06/23 04:03:07;;;;;;;8.97;4.20;;;19.20;87.80;;;18.80;70.10;97792.81;4981027;28;20510;-87
2023/06/23 04:05:39;;;;;;;3.57;3.27;;;19.20;87.60;;;18.76;70.36;97801.84;4995937;28;20484;-85
2023/06/23 04:08:09;;;;;;;3.97;3.13;;;19.10;87.50;;;19.21;70.25;97837.66;4973831;28;20457;-88
2023/06/23 04:10:39;;;;;;;4.03;3.57;;;19.10;87.60;;;19.32;69.76;97846.69;4988613;28;20516;-87
2023/06/23 04:13:09;;;;;;;5.33;3.60;;;19.20;87.40;;;19.05;69.17;97801.31;5004730;28;20576;-87
2023/06/23 04:15:41;;;;;;;3.43;2.70;;;19.20;87.30;;;18.88;69.34;97780.50;4978512;28;20457;-85
2023/06/23 04:18:12;;;;;;;4.13;3.30;;;19.20;87.10;;;19.42;69.23;97849.41;4976606;28;20464;-86
2023/06/23 04:20:44;;;;;;;3.77;3.10;;;19.20;87.10;;;19.58;69.05;97847.47;4970642;28;20460;-87
2023/06/23 04:23:14;;;;;;;3.13;2.83;;;19.40;87.50;;;19.45;68.99;97854.31;4978251;28;20468;-86
2023/06/23 04:25:44;;;;;;;3.17;2.77;;;19.40;86.90;;;19.38;68.87;97834.63;4998270;28;20462;-87
2023/06/23 04:28:16;;;;;;;3.47;3.13;;;19.40;86.90;;;19.45;69.86;97859.81;4981515;28;20461;-85
2023/06/23 04:30:45;;;;;;;3.47;3.03;;;19.40;87.40;;;19.54;69.50;97857.31;5000142;28;20486;-86
2023/06/23 04:33:13;;;;;;;3.13;2.77;;;19.40;87.40;;;19.05;69.17;97806.78;4998382;28;20492;-87
2023/06/23 04:35:42;;;;;;;4.00;2.83;;;19.40;86.60;;;19.38;69.32;97864.75;4965076;28;20503;-84
2023/06/23 04:38:14;;;;;;;3.03;2.53;;;19.40;86.90;;;19.44;68.59;97858.16;4985823;28;20482;-84
2023/06/23 04:40:48;;;;;;;3.23;2.80;;;19.40;86.50;;;19.52;68.05;97860.34;4986557;28;20460;-84
2023/06/23 04:43:23;;;;;;;3.80;2.93;;;19.50;86.60;;;19.57;68.57;97867.75;4987515;28;20835;-85
2023/06/23 04:45:58;;;;;;;3.30;2.67;;;19.50;86.40;;;19.48;68.36;97866.66;4987557;28;20954;-87
2023/06/23 04:48:31;;;;;;;2.70;2.50;;;19.50;86.30;;;19.30;68.47;97885.31;4990293;28;20471;-85
2023/06/23 04:51:05;;;;;;;3.10;2.77;;;19.40;86.00;;;19.28;68.76;97882.03;4980532;28;20471;-78
2023/06/23 04:53:38;;;;;;;3.27;2.80;;;19.30;86.30;;;19.20;68.83;97886.16;4987878;28;20482;-86
2023/06/23 04:56:09;;;;;;;5.03;3.60;;;19.30;86.10;;;19.16;68.50;97892.47;4979775;28;20467;-77
2023/06/23 04:58:39;;;;;;;3.27;2.97;;;19.20;85.80;;;19.25;68.21;97899.84;4982169;28;20535;-79
2023/06/23 05:01:12;;;;;;;3.23;2.53;;;19.20;85.80;;;19.46;66.68;97864.19;4989809;28;20468;-77
2023/06/23 05:03:41;;;;;;;3.20;2.70;;;19.60;85.70;;;19.62;66.27;97894.28;4973546;28;20475;-79
2023/06/23 05:06:12;;;;;;;3.80;3.30;;;19.60;84.80;;;19.85;66.35;97903.00;4986404;28;21181;-79
2023/06/23 05:08:41;;;;;;;3.50;3.20;;;19.70;85.00;;;19.93;65.44;97907.94;4984119;28;20470;-73
2023/06/23 05:11:10;;;;;;;3.10;2.80;;;19.80;84.60;;;19.66;65.75;97898.13;4983581;28;20515;-73
2023/06/23 05:13:39;;;;;;;3.30;3.00;;;19.70;83.90;;;19.94;65.14;97910.41;4963336;28;20493;-74
2023/06/23 05:16:10;;;;;;;4.03;3.20;;;19.80;84.20;;;20.00;63.80;97897.50;4977368;28;20470;-75
2023/06/23 05:18:43;;;;;;;4.57;3.00;;;20.10;83.20;;;19.76;64.74;97906.31;4983460;28;20956;-73
2023/06/23 05:21:14;;;;;;;3.70;2.87;;;19.80;83.50;;;19.85;64.58;97916.72;4981622;28;20485;-72
2023/06/23 05:23:44;;;;;;;3.97;3.57;;;19.90;83.30;;;19.98;64.35;97905.19;4963951;28;20511;-75
2023/06/23 05:26:14;;;;;;;4.13;3.10;;;19.90;83.30;;;19.92;64.51;97906.28;4984579;28;20999;-73
2023/06/23 05:28:44;;;;;;;4.37;3.97;;;19.90;83.00;;;20.21;63.49;97905.63;4978803;28;20470;-75
2023/06/23 05:31:13;;;;;;;3.33;2.97;;;20.10;83.10;;;20.21;63.59;97902.88;4982097;28;21042;-75
2023/06/23 05:33:43;;;;;;;4.27;3.50;;;20.20;82.80;;;20.01;63.57;97915.59;4987191;28;20507;-74
2023/06/23 05:36:13;;;;;;;3.63;3.30;;;20.10;82.40;;;20.12;63.32;97916.34;4982459;28;20467;-73
2023/06/23 05:38:43;;;;;;;5.03;3.40;;;20.10;82.50;;;20.10;63.21;97933.09;4976087;28;21086;-74
2023/06/23 05:41:10;;;;;;;3.50;3.07;;;20.10;82.30;;;20.00;64.19;97924.91;4983649;28;20469;-73
2023/06/23 05:43:38;;;;;;;4.17;3.77;;;19.90;82.90;;;19.94;65.15;97926.00;4982993;28;20522;-73
2023/06/23 05:46:12;;;;;;;4.30;3.67;;;19.90;83.50;;;20.01;65.62;97934.78;4984652;28;20492;-73
2023/06/23 05:48:45;;;;;;;5.47;3.80;;;19.90;83.90;;;19.82;66.95;97940.00;4976154;28;20464;-78
2023/06/23 05:51:28;;;;;;;4.20;3.50;;;19.80;84.40;;;19.81;67.01;97932.88;4978455;28;21072;-75
2023/06/23 05:54:00;;;;;;;3.83;3.40;;;19.80;84.80;;;19.91;67.01;97932.03;4975368;28;20713;-77
2023/06/23 05:56:33;;;;;;;5.97;4.47;;;19.80;85.00;;;19.84;67.09;97948.78;4982412;28;20501;-77
2023/06/23 05:59:06;;;;;;;7.53;4.67;;;19.80;85.00;;;19.73;67.15;97945.25;4974930;28;20514;-73
2023/06/23 06:01:40;;;;;;;5.40;3.90;;;19.70;84.90;;;19.71;67.39;97949.34;4970766;28;20507;-76
2023/06/23 06:04:11;;;;;;;4.30;3.80;;;19.60;85.20;;;19.69;67.56;97957.84;4990956;28;20472;-76
2023/06/23 06:06:41;;;;;;;4.27;3.70;;;19.60;85.20;;;19.66;67.87;97951.00;4986602;28;20460;-78
2023/06/23 06:09:12;;;;;;;4.87;3.87;;;19.60;85.40;;;19.50;67.79;97966.66;4938292;28;20456;-77
2023/06/23 06:11:42;;;;;;;4.30;3.90;;;19.50;85.20;;;19.45;67.81;97957.63;4986119;28;21105;-75
2023/06/23 06:14:12;;;;;;;5.33;3.77;;;19.50;85.10;;;19.41;67.71;97965.56;4987990;28;20481;-75
2023/06/23 06:16:40;;;;;;;7.20;4.90;;;19.40;85.00;;;19.26;67.22;97971.88;4989976;28;20456;-75
2023/06/23 06:19:08;;;;;;;7.83;3.70;;;19.40;84.50;;;19.29;66.40;97973.22;4987358;28;21108;-76
2023/06/23 06:21:39;;;;;;;3.07;2.77;;;19.30;83.90;;;19.29;66.71;97975.97;4985624;28;21035;-77
2023/06/23 06:24:09;;;;;;;4.93;3.30;;;19.30;84.20;;;19.51;65.89;97984.75;4988395;28;20498;-75
2023/06/23 06:26:37;;;;;;;5.20;3.40;;;19.40;83.90;;;19.49;65.16;97992.41;4981173;28;20463;-77
2023/06/23 06:29:06;;;;;;;4.00;3.60;;;19.50;83.40;;;19.23;65.71;98000.63;4981983;28;20464;-78
2023/06/23 06:31:34;;;;;;;4.17;3.80;;;19.40;83.40;;;19.22;65.82;98001.72;4969234;28;20463;-78
2023/06/23 06:34:02;;;;;;;3.90;3.50;;;19.30;83.30;;;18.83;65.54;97969.31;4981293;28;20563;-80
2023/06/23 06:36:33;;;;;;;4.23;3.83;;;19.30;83.10;;;19.32;65.76;98013.75;4983324;28;20481;-80
2023/06/23 06:39:05;;;;;;;5.23;4.20;;;19.30;83.30;;;19.30;65.36;98013.22;4988355;28;20465;-80
2023/06/23 06:41:33;;;;;;;4.07;3.50;;;19.40;83.30;;;19.25;65.70;98012.13;4988190;28;20960;-72
2023/06/23 06:44:02;;;;;;;4.80;3.97;;;19.30;83.30;;;19.24;66.11;98026.06;4995339;28;20518;-77
2023/06/23 06:46:31;;;;;;;4.30;3.43;;;19.30;83.40;;;19.13;66.42;98038.13;5006445;28;20451;-75
2023/06/23 06:48:59;;;;;;;6.47;4.50;;;19.20;83.40;;;18.93;66.24;98029.56;5005060;28;20466;-76
2023/06/23 06:51:28;;;;;;;3.33;2.80;;;19.10;83.10;;;18.90;66.30;98042.97;4992008;28;20459;-77
2023/06/23 06:53:55;;;;;;;4.20;3.50;;;19.00;83.20;;;18.75;65.16;98013.66;4988014;28;20479;-77
2023/06/23 06:56:25;;;;;;;3.77;3.47;;;19.10;82.80;;;18.86;65.37;98056.34;4982400;28;20467;-78
2023/06/23 06:58:52;;;;;;;3.13;2.83;;;19.00;82.50;;;18.93;65.06;98051.47;4986278;28;20459;-77
2023/06/23 07:01:20;;;;;;;3.43;3.00;;;19.00;82.60;;;18.88;65.71;98054.19;4973093;28;20452;-78
2023/06/23 07:03:49;;;;;;;3.43;3.13;;;19.00;82.80;;;18.95;65.51;98054.75;4986565;28;20832;-77
2023/06/23 07:06:16;;;;;;;4.73;2.57;;;18.90;82.80;;;18.80;65.77;98061.00;4987514;28;20459;-77
2023/06/23 07:08:43;;;;;;;3.73;3.00;;;18.90;82.70;;;18.92;65.89;98066.25;4964290;28;20462;-78
2023/06/23 07:11:13;;;;;;;3.90;3.50;;;19.00;83.10;;;19.10;65.68;98066.84;4967008;28;22562;-78
2023/06/23 07:13:41;;;;;;;3.50;3.20;;;19.00;83.40;;;19.17;65.34;98072.88;4982175;28;20538;-78
2023/06/23 07:16:08;;;;;;;3.73;3.40;;;19.20;83.10;;;19.22;65.46;98077.56;4981439;28;20519;-77
2023/06/23 07:18:36;;;;;;;3.50;3.20;;;19.20;83.20;;;18.94;66.85;98082.38;4987122;28;20474;-77
2023/06/23 07:21:04;;;;;;;3.53;3.23;;;19.10;83.50;;;19.02;66.77;98081.06;4983984;28;20464;-77
2023/06/23 07:23:31;;;;;;;4.50;3.07;;;19.10;83.70;;;19.00;66.63;98088.72;4981427;28;20472;-79
2023/06/23 07:25:59;;;;;;;4.10;3.63;;;19.00;83.50;;;19.01;66.18;98087.63;4964807;28;20471;-78
2023/06/23 07:28:26;;;;;;;4.13;3.73;;;19.10;83.30;;;18.91;65.95;98083.75;4987978;28;20688;-79
2023/06/23 07:30:55;;;;;;;4.07;3.07;;;19.10;83.20;;;18.91;67.02;98097.44;4988574;28;20459;-78
2023/06/23 07:33:22;;;;;;;3.03;2.73;;;19.00;83.60;;;18.64;69.34;98106.63;4968637;28;20465;-78
2023/06/23 07:35:50;;;;;;;3.97;3.67;;;18.80;84.80;;;18.64;69.14;98103.91;4986953;28;20562;-78
2023/06/23 07:38:17;;;;;;;4.17;3.77;;;18.70;85.00;;;18.72;70.45;98104.47;4986096;28;20458;-80
2023/06/23 07:40:45;;;;;;;4.50;3.90;;;18.80;86.40;;;18.58;72.29;98107.72;4985544;28;20553;-78
2023/06/23 07:43:13;;;;;;;3.60;3.17;;;18.70;87.40;;;18.59;69.76;98095.66;4984917;28;20480;-79
2023/06/23 07:45:41;;;;;;;4.20;3.73;;;18.70;86.10;;;18.58;70.04;98104.97;4986524;28;20456;-79
2023/06/23 07:48:10;;;;;;;3.83;3.03;;;18.70;85.90;;;18.62;70.07;98103.34;4988171;28;20470;-78
2023/06/23 07:50:38;;;;;;;4.20;3.80;;;18.70;86.00;;;18.89;70.17;98110.56;4970158;28;20468;-77
2023/06/23 07:53:05;;;;;;;3.70;3.30;;;18.80;86.50;;;18.93;68.97;98117.16;4986900;28;20492;-78
2023/06/23 07:55:32;;;;;;;3.20;2.90;;;18.90;85.80;;;18.79;68.14;98102.31;4997783;28;20589;-77
2023/06/23 07:58:00;;;;;;;4.73;3.77;;;18.90;84.80;;;18.77;68.64;98112.72;4983561;28;20460;-75
2023/06/23 08:00:27;;;;;;;4.53;4.13;;;18.90;85.10;;;18.61;69.49;98107.16;4995419;28;20531;-77
2023/06/23 08:02:54;;;;;;;4.93;3.87;;;18.80;85.30;;;18.37;71.55;98112.22;4977373;28;20483;-77
2023/06/23 08:05:24;;;;;;;5.20;4.30;;;18.60;86.50;;;18.08;73.30;98116.13;4989331;28;20618;-77
2023/06/23 08:07:51;;;;;;;4.90;4.20;;;18.40;87.60;;;17.84;76.00;98119.22;4989646;28;20491;-76
2023/06/23 08:10:18;;;;;;;4.93;4.40;;;18.10;90.00;;;17.74;77.08;98121.00;4951855;28;20459;-78
2023/06/23 08:12:46;;;;;;;5.60;4.97;;;18.00;90.70;;;17.55;79.64;98127.69;4982499;28;20485;-77
2023/06/23 08:15:13;;;;;;;5.10;4.40;;;17.80;92.10;;;17.51;80.42;98129.28;4965945;28;20481;-78
2023/06/23 08:17:42;;;;;;;5.13;4.63;;;17.70;93.30;;;17.59;80.09;98121.72;4984557;28;20475;-77
2023/06/23 08:20:10;;;;;;;6.13;4.67;;;17.80;93.50;;;17.69;79.47;98135.47;4984114;28;20806;-76
2023/06/23 08:22:40;;;;;;;4.67;4.17;;;17.90;93.00;;;17.74;79.08;98130.03;4970036;28;20473;-75
2023/06/23 08:25:09;;;;;;;5.23;4.13;;;17.90;92.60;;;17.97;79.11;98134.34;4986243;28;20458;-77
2023/06/23 08:27:36;;;;;;;4.00;3.70;;;18.10;93.10;;;18.14;76.55;98138.06;4988889;28;20471;-78
2023/06/23 08:30:05;;;;;;;4.73;4.30;;;18.30;91.70;;;18.20;76.40;98140.56;4987166;28;20470;-78
2023/06/23 08:32:32;;;;;;;4.67;4.27;;;18.40;91.10;;;18.33;73.87;98139.28;4982273;28;20627;-77
2023/06/23 08:34:59;;;;;;;4.10;3.70;;;18.40;89.90;;;18.61;72.45;98141.91;4984617;28;20472;-76
2023/06/23 08:37:27;;;;;;;5.30;4.07;;;18.70;89.30;;;18.73;72.16;98138.94;4986680;28;20460;-76
2023/06/23 08:39:58;;;;;;;3.83;3.53;;;18.80;88.80;;;18.91;70.89;98146.72;4990811;28;20553;-79
2023/06/23 08:42:27;;;;;;;6.23;3.20;;;18.90;88.00;;;18.83;69.03;98144.47;4982836;28;20456;-79
2023/06/23 08:44:59;;;;;;;3.40;2.67;;;19.00;86.00;;;18.86;68.51;98154.88;4989527;28;20513;-80
2023/06/23 08:47:31;;;;;;;3.67;3.37;;;19.00;85.60;;;19.02;67.43;98155.81;4989567;28;20456;-80
2023/06/23 08:49:58;;;;;;;3.70;3.40;;;19.10;85.00;;;19.15;67.11;98157.22;4970777;28;20526;-81
2023/06/23 08:52:26;;;;;;;2.83;2.63;;;19.20;84.80;;;18.88;67.08;98158.19;4964207;28;20456;-81
2023/06/23 08:54:55;;;;;;;3.43;3.13;;;19.10;84.30;;;18.97;67.76;98162.06;4983471;28;20498;-80
2023/06/23 08:57:25;;;;;;;4.27;3.87;;;19.10;84.90;;;18.86;66.81;98160.34;4984608;28;20455;-81
2023/06/23 08:59:55;;;;;;;3.97;3.57;;;19.00;84.00;;;18.98;66.65;98146.47;4986267;28;20524;-81
2023/06/23 09:02:22;;;;;;;3.83;3.20;;;19.20;84.50;;;19.49;64.71;98177.88;4983560;28;20571;-81
2023/06/23 09:04:50;;;;;;;3.90;3.47;;;19.50;83.40;;;19.30;65.16;98163.84;4964954;28;20466;-79
2023/06/23 09:07:18;;;;;;;4.80;3.53;;;19.50;82.90;;;19.99;62.86;98169.19;4973726;28;20529;-77
2023/06/23 09:09:47;;;;;;;3.27;2.97;;;19.90;82.50;;;19.88;61.70;98184.78;4966965;28;20900;-74
2023/06/23 09:12:20;;;;;;;3.13;2.93;;;20.00;80.90;;;20.10;61.84;98177.19;4985472;28;20456;-74
2023/06/23 09:14:49;;;;;;;2.97;2.70;;;20.20;81.00;;;20.48;59.94;98187.00;4984192;28;20479;-75
2023/06/23 09:17:17;;;;;;;4.03;3.63;;;20.60;79.70;;;20.39;59.43;98179.31;4982910;28;20472;-76
2023/06/23 09:19:49;;;;;;;3.33;3.03;;;20.70;78.70;;;20.24;60.34;98199.38;4986747;28;20854;-76
2023/06/23 09:22:19;;;;;;;3.83;3.43;;;20.50;79.20;;;20.26;61.15;98193.63;4986031;28;20471;-74
2023/06/23 09:24:47;;;;;;;3.90;3.60;;;20.40;79.90;;;20.04;60.72;98202.94;4983142;28;20464;-75
2023/06/23 09:27:17;;;;;;;3.83;3.43;;;20.30;79.20;;;19.79;62.43;98215.50;4967621;28;20524;-74
2023/06/23 09:30:00;;;;;;;3.50;3.20;;;20.00;80.00;;;19.88;62.08;98212.22;4987846;28;20464;-75
2023/06/23 09:32:31;;;;;;;3.53;3.23;;;20.00;79.90;;;19.61;62.68;98218.72;5001064;28;20885;-73
2023/06/23 09:34:58;;;;;;;5.30;3.40;;;19.80;80.10;;;19.23;63.67;98225.19;4988287;28;20472;-74
2023/06/23 09:37:26;;;;;;;3.97;3.57;;;19.50;80.60;;;19.59;63.36;98226.41;4984007;28;20551;-72
2023/06/23 09:39:57;;;;;;;3.73;3.43;;;19.70;80.90;;;19.88;61.78;98236.88;4983521;28;20459;-75
2023/06/23 09:42:26;;;;;;;3.80;3.50;;;19.90;80.00;;;19.51;61.95;98225.00;4984537;28;20956;-75
2023/06/23 09:44:53;;;;;;;3.90;3.50;;;19.80;79.60;;;19.55;62.16;98231.59;4983679;28;20476;-75
2023/06/23 09:47:21;;;;;;;3.20;2.90;;;19.70;79.80;;;19.87;60.63;98225.13;4985326;28;20484;-75
2023/06/23 09:49:50;;;;;;;2.87;2.67;;;20.00;79.00;;;20.08;60.65;98228.69;4980186;28;20512;-74
2023/06/23 09:52:25;;;;;;;3.17;2.90;;;20.10;79.30;;;20.04;60.23;98235.84;4978880;28;20469;-75
2023/06/23 09:54:52;;;;;;;3.70;3.20;;;20.20;78.60;;;19.74;60.05;98244.81;4969132;28;20525;-74
2023/06/23 09:57:22;;;;;;;3.57;3.27;;;20.00;78.10;;;19.59;60.88;98249.16;4984837;28;20469;-75
2023/06/23 09:59:53;;;;;;;3.83;3.47;;;19.80;78.40;;;19.76;60.67;98246.16;4986107;28;20474;-74
2023/06/23 10:02:23;;;;;;;3.27;2.83;;;19.90;78.50;;;20.06;60.01;98247.34;4985376;28;20485;-76
2023/06/23 10:04:52;;;;;;;3.10;2.80;;;20.00;78.30;;;19.79;60.11;98231.09;4984114;28;21116;-75
2023/06/23 10:07:21;;;;;;;3.40;3.03;;;20.00;78.00;;;19.54;60.36;98258.19;4982417;28;20451;-75
2023/06/23 10:09:53;;;;;;;3.13;2.87;;;19.80;77.60;;;19.32;60.50;98272.06;4986427;28;20513;-73
2023/06/23 10:12:22;;;;;;;4.43;3.67;;;19.60;77.70;;;19.25;61.95;98255.88;4988613;28;20472;-75
2023/06/23 10:14:52;;;;;;;3.10;2.87;;;19.40;78.60;;;19.58;60.67;98263.13;4986761;28;20526;-77
2023/06/23 10:17:20;;;;;;;3.30;3.00;;;19.60;78.40;;;19.56;60.82;98265.31;4982759;28;20863;-75
2023/06/23 10:19:48;;;;;;;3.03;2.83;;;19.70;78.30;;;19.42;61.69;98271.28;4990291;28;20463;-76
2023/06/23 10:22:18;;;;;;;2.80;2.50;;;19.60;78.60;;;19.18;61.43;98276.38;4986566;28;20951;-74
2023/06/23 10:24:48;;;;;;;2.93;2.73;;;19.40;78.10;;;19.16;62.02;98273.88;4987280;28;20472;-75
2023/06/23 10:27:17;;;;;;;2.80;2.60;;;19.30;78.50;;;18.96;62.22;98280.88;4989104;28;20530;-75
2023/06/23 10:29:52;;;;;;;4.00;3.50;;;19.20;78.70;;;19.20;62.30;98283.22;4987201;28;20458;-74
2023/06/23 10:32:23;;;;;;;2.77;2.57;;;19.30;79.10;;;19.19;61.65;98291.72;4993910;28;21026;-75
2023/06/23 10:34:52;;;;;;;2.77;2.57;;;19.30;78.70;;;19.27;61.60;98285.75;4970469;28;20908;-72
2023/06/23 10:37:23;;;;;;;3.27;3.00;;;19.50;78.60;;;18.95;62.73;98272.91;4986211;28;20842;-75